Time;durP1;ratioP1;P1;durP2;ratioP2;P2;SDS_P1;SDS_P2;PMS_P1;PMS_P2;Temp;Humidity;BMP_temperature;BMP_pressure;BME280_temperature;BME280_humidity;BME280_pressure;Samples;Min_cycle;Max_cycle;Signal;HPM_P1;HPM_P2
2021/04/10 00:04:43;;;;;;;14.50;6.72;;;11.80;41.90;;;;;;10196149;28;20447;-73
2021/04/10 00:09:36;;;;;;;14.07;7.85;;;13.30;43.20;;;;;;10213661;28;20105;-74
2021/04/10 00:14:29;;;;;;;15.48;7.18;;;12.30;43.10;;;;;;10213620;28;20057;-72
2021/04/10 00:19:22;;;;;;;15.10;7.38;;;11.40;42.40;;;;;;10221407;28;20397;-73
2021/04/10 00:24:15;;;;;;;13.93;6.63;;;13.70;44.60;;;;;;10202774;28;20134;-72
2021/04/10 00:29:08;;;;;;;14.77;6.53;;;10.20;43.00;;;;;;10221874;28;20435;-72
2021/04/10 00:34:01;;;;;;;13.48;6.70;;;11.10;43.70;;;;;;10220716;28;20048;-74
2021/04/10 00:38:54;;;;;;;13.07;6.90;;;10.10;43.20;;;;;;10220144;28;20052;-73
2021/04/10 00:43:47;;;;;;;32.92;14.88;;;12.30;44.20;;;;;;10220345;28;20044;-73
2021/04/10 00:48:40;;;;;;;16.70;8.27;;;11.40;43.20;;;;;;10219759;28;20061;-72
2021/04/10 00:53:35;;;;;;;16.15;6.75;;;12.70;43.60;;;;;;10221004;28;20051;-73
2021/04/10 00:58:28;;;;;;;12.75;6.90;;;;;;;;;;10220022;28;20131;-75
2021/04/10 01:03:22;;;;;;;13.65;6.47;;;12.20;43.30;;;;;;10219610;28;20104;-72
2021/04/10 01:08:16;;;;;;;10.40;6.20;;;11.50;43.30;;;;;;10219369;28;20039;-73
2021/04/10 01:13:25;;;;;;;12.60;6.78;;;11.60;43.10;;;;;;10218749;28;20052;-74
2021/04/10 01:18:19;;;;;;;16.55;7.10;;;;;;;;;;10211578;28;20117;-75
2021/04/10 01:23:27;;;;;;;17.00;7.97;;;;;;;;;;10218920;28;20047;-73
2021/04/10 01:28:51;;;;;;;14.25;7.15;;;11.40;43.90;;;;;;10198348;28;20051;-74
2021/04/10 01:33:50;;;;;;;12.55;6.13;;;11.00;43.80;;;;;;10218433;28;20039;-74
2021/04/10 01:38:47;;;;;;;13.25;7.20;;;10.90;43.80;;;;;;10199541;28;20413;-74
2021/04/10 01:43:41;;;;;;;12.88;6.20;;;;;;;;;;10200129;28;20050;-74
2021/04/10 01:48:36;;;;;;;12.85;6.25;;;10.80;43.40;;;;;;10218221;28;20050;-75
2021/04/10 01:53:30;;;;;;;21.13;7.00;;;13.10;45.20;;;;;;10217262;28;20048;-73
2021/04/10 01:58:24;;;;;;;14.93;6.72;;;12.10;44.10;;;;;;10217198;28;20486;-73
2021/04/10 02:03:20;;;;;;;12.95;6.40;;;11.60;43.80;;;;;;10198940;28;20051;-74
2021/04/10 02:08:16;;;;;;;13.38;6.15;;;10.80;43.50;;;;;;10198435;28;20054;-73
2021/04/10 02:13:10;;;;;;;16.10;6.68;;;11.10;43.80;;;;;;10217058;28;20068;-72
2021/04/10 02:18:09;;;;;;;;;;;11.20;43.90;;;;;;10198885;28;20044;-73
2021/04/10 02:23:03;;;;;;;16.25;6.50;;;11.00;43.70;;;;;;10216759;28;19923;-74
2021/04/10 02:28:03;;;;;;;19.02;7.20;;;10.80;44.70;;;;;;10215735;28;20051;-73
2021/04/10 02:32:59;;;;;;;18.00;7.05;;;;;;;;;;10197671;28;20085;-74
2021/04/10 02:37:55;;;;;;;13.80;6.38;;;11.20;44.30;;;;;;10197021;28;20059;-74
2021/04/10 02:42:49;;;;;;;18.70;7.28;;;12.00;45.50;;;;;;10197506;28;20051;-73
2021/04/10 02:47:49;;;;;;;14.05;6.50;;;10.00;44.70;;;;;;10197635;28;20040;-74
2021/04/10 02:52:47;;;;;;;14.15;6.18;;;11.30;45.00;;;;;;10196629;28;20054;-73
2021/04/10 02:57:43;;;;;;;11.90;6.05;;;11.20;45.00;;;;;;10196923;28;20100;-74
2021/04/10 03:02:37;;;;;;;16.40;7.00;;;11.20;45.00;;;;;;10215459;28;20055;-73
2021/04/10 03:07:34;;;;;;;15.18;6.63;;;11.50;45.70;;;;;;10196468;28;20072;-73
2021/04/10 03:12:27;;;;;;;16.38;6.20;;;11.00;44.90;;;;;;10196517;28;20104;-73
2021/04/10 03:17:25;;;;;;;16.02;6.63;;;10.10;45.30;;;;;;10196342;28;20497;-73
2021/04/10 03:22:24;;;;;;;13.63;6.82;;;11.90;45.40;;;;;;10195885;28;20125;-74
2021/04/10 03:27:19;;;;;;;14.38;6.65;;;10.40;45.50;;;;;;10195455;28;20063;-73
2021/04/10 03:32:13;;;;;;;12.98;6.40;;;10.10;45.40;;;;;;10196180;28;20067;-74
2021/04/10 03:37:12;;;;;;;13.52;6.25;;;11.40;45.50;;;;;;10196042;28;20055;-74
2021/04/10 03:42:08;;;;;;;14.10;6.63;;;10.00;45.50;;;;;;10195818;28;20472;-74
2021/04/10 03:47:01;;;;;;;15.45;6.88;;;11.70;46.20;;;;;;10214708;28;20048;-74
2021/04/10 03:51:56;;;;;;;10.93;5.75;;;10.70;45.90;;;;;;10199961;28;20055;-76
2021/04/10 03:56:49;;;;;;;13.80;6.10;;;10.80;45.30;;;;;;10203730;28;20047;-74
2021/04/10 04:01:52;;;;;;;11.70;5.68;;;10.00;45.60;;;;;;10222084;28;20060;-74
2021/04/10 04:06:49;;;;;;;13.82;5.85;;;11.50;45.70;;;;;;10203411;28;20043;-73
2021/04/10 04:11:42;;;;;;;14.63;5.82;;;11.60;45.70;;;;;;10221954;28;20486;-74
2021/04/10 04:16:34;;;;;;;12.45;6.20;;;11.00;46.20;;;;;;10221862;28;20420;-74
2021/04/10 04:21:28;;;;;;;12.68;5.90;;;11.40;46.50;;;;;;10221556;28;20054;-74
2021/04/10 04:26:21;;;;;;;10.73;5.43;;;11.60;46.00;;;;;;10202395;28;20520;-73
2021/04/10 04:31:13;;;;;;;11.25;5.45;;;10.40;46.10;;;;;;10221193;28;20531;-75
2021/04/10 04:36:07;;;;;;;9.63;5.47;;;10.00;46.00;;;;;;10201982;28;20101;-74
2021/04/10 04:41:03;;;;;;;9.00;4.53;;;11.30;46.30;;;;;;10220137;28;20079;-74
2021/04/10 04:45:56;;;;;;;9.27;5.40;;;10.70;46.20;;;;;;10222071;28;20138;-74
2021/04/10 04:50:50;;;;;;;11.38;5.13;;;10.30;46.20;;;;;;10220193;28;20437;-74
2021/04/10 04:55:43;;;;;;;11.15;4.55;;;10.50;46.40;;;;;;10201680;28;20116;-75
2021/04/10 05:00:36;;;;;;;9.07;4.63;;;10.40;46.40;;;;;;10219606;28;20094;-73
2021/04/10 05:05:29;;;;;;;12.30;5.07;;;11.20;46.40;;;;;;10219419;28;20051;-75
2021/04/10 05:10:22;;;;;;;11.82;4.80;;;;;;;;;;10219133;28;20093;-74
2021/04/10 05:15:15;;;;;;;10.95;5.43;;;11.10;46.80;;;;;;10219150;28;20043;-74
2021/04/10 05:20:10;;;;;;;11.10;4.88;;;12.60;47.20;;;;;;10219894;28;20069;-74
2021/04/10 05:25:03;;;;;;;7.20;4.28;;;10.60;45.40;;;;;;10218912;28;20390;-74
2021/04/10 05:29:55;;;;;;;8.77;4.50;;;10.10;45.90;;;;;;10219106;28;20066;-74
2021/04/10 05:34:48;;;;;;;9.43;4.60;;;10.50;45.40;;;;;;10219040;28;20059;-74
2021/04/10 05:39:42;;;;;;;13.43;5.28;;;10.30;45.90;;;;;;10199795;28;20059;-73
2021/04/10 05:44:35;;;;;;;10.32;5.15;;;9.70;45.50;;;;;;10218893;28;20051;-75
2021/04/10 05:49:28;;;;;;;10.48;4.70;;;11.20;45.70;;;;;;10218945;28;19920;-76
2021/04/10 05:54:20;;;;;;;10.60;4.78;;;10.50;46.00;;;;;;10203680;28;20055;-74
2021/04/10 05:59:16;;;;;;;14.13;4.90;;;;;;;;;;10217813;28;20051;-73
2021/04/10 06:04:11;;;;;;;10.75;4.60;;;10.40;46.00;;;;;;10218090;28;20470;-74
2021/04/10 06:09:04;;;;;;;8.98;4.78;;;11.30;46.70;;;;;;10217336;28;20043;-76
2021/04/10 06:13:57;;;;;;;7.72;4.55;;;12.20;47.00;;;;;;10216258;28;20047;-74
2021/04/10 06:18:50;;;;;;;12.85;5.40;;;10.40;45.40;;;;;;10216681;28;20058;-74
2021/04/10 06:23:46;;;;;;;10.95;4.88;;;10.60;45.50;;;;;;10197866;28;20054;-72
2021/04/10 06:28:39;;;;;;;10.57;4.40;;;9.30;45.50;;;;;;10216416;28;20051;-73
2021/04/10 06:33:31;;;;;;;11.73;4.95;;;12.50;47.00;;;;;;10216704;28;20051;-75
2021/04/10 06:38:25;;;;;;;12.13;5.13;;;12.70;47.20;;;;;;10215450;28;20048;-75
2021/04/10 06:43:18;;;;;;;14.13;5.07;;;11.00;45.50;;;;;;10215641;28;20485;-76
2021/04/10 06:48:14;;;;;;;13.75;4.55;;;11.50;46.30;;;;;;10215870;28;20553;-74
2021/04/10 06:53:13;;;;;;;10.43;4.70;;;12.70;47.00;;;;;;10214981;28;20142;-74
2021/04/10 06:58:11;;;;;;;12.70;4.88;;;12.10;46.60;;;;;;10215022;28;20048;-74
2021/04/10 07:03:05;;;;;;;10.60;4.53;;;10.90;45.20;;;;;;10214429;28;20054;-75
2021/04/10 07:07:58;;;;;;;8.27;3.80;;;13.10;47.00;;;;;;10214481;28;20039;-74
2021/04/10 07:12:51;;;;;;;9.23;3.45;;;12.70;47.20;;;;;;10214353;28;20591;-75
2021/04/10 07:17:49;;;;;;;10.13;3.47;;;10.60;45.40;;;;;;10214010;28;20449;-75
2021/04/10 07:22:56;;;;;;;7.15;3.10;;;12.30;46.90;;;;;;10214320;28;20051;-74
2021/04/10 07:27:49;;;;;;;6.68;2.90;;;12.20;46.80;;;;;;10214034;28;20078;-74
2021/04/10 07:32:42;;;;;;;9.88;3.38;;;11.90;46.00;;;;;;10213712;28;20085;-74
2021/04/10 07:37:37;;;;;;;6.65;3.10;;;10.90;45.30;;;;;;10213519;28;20039;-74
2021/04/10 07:42:31;;;;;;;7.68;3.20;;;12.20;46.00;;;;;;10213513;28;20047;-73
2021/04/10 07:47:41;;;;;;;5.78;3.05;;;12.00;45.90;;;;;;10213656;28;20044;-73
2021/04/10 07:52:34;;;;;;;5.45;2.50;;;13.50;47.40;;;;;;10194451;28;20055;-73
2021/04/10 07:57:27;;;;;;;6.35;2.45;;;11.90;46.50;;;;;;10213300;28;20050;-73
2021/04/10 08:02:22;;;;;;;8.48;3.25;;;13.00;47.10;;;;;;10213624;28;20062;-74
2021/04/10 08:07:24;;;;;;;5.43;3.00;;;11.50;46.00;;;;;;10213767;28;20052;-73
2021/04/10 08:12:27;;;;;;;10.55;3.75;;;13.20;46.50;;;;;;10212217;28;20409;-74
2021/04/10 08:17:32;;;;;;;10.23;3.00;;;13.10;46.00;;;;;;10212622;28;20048;-74
2021/04/10 08:22:25;;;;;;;8.77;2.92;;;12.90;46.40;;;;;;10194165;28;20043;-75
2021/04/10 08:27:18;;;;;;;5.80;3.03;;;11.40;45.90;;;;;;10213064;28;20064;-73
2021/04/10 08:32:11;;;;;;;6.63;2.92;;;12.10;46.40;;;;;;10212559;28;20101;-75
2021/04/10 08:37:07;;;;;;;6.70;3.60;;;11.40;45.90;;;;;;10215138;28;20043;-73
2021/04/10 08:42:01;;;;;;;8.05;3.10;;;11.60;45.80;;;;;;10219085;28;20078;-75
2021/04/10 08:46:55;;;;;;;21.20;3.53;;;12.80;46.40;;;;;;10219454;28;20566;-74
2021/04/10 08:51:54;;;;;;;7.78;3.33;;;13.50;46.00;;;;;;10219293;28;20039;-74
2021/04/10 08:56:50;;;;;;;10.73;3.63;;;15.50;47.60;;;;;;10219281;28;20092;-73
2021/04/10 09:01:44;;;;;;;7.88;3.92;;;13.80;46.60;;;;;;10218938;28;20067;-74
2021/04/10 09:06:50;;;;;;;11.52;3.15;;;14.50;46.30;;;;;;10218916;28;20047;-74
2021/04/10 09:11:45;;;;;;;9.75;3.53;;;13.60;45.70;;;;;;10200474;28;20057;-74
2021/04/10 09:16:47;;;;;;;7.55;3.55;;;13.50;45.50;;;;;;10218578;28;20043;-74
2021/04/10 09:21:42;;;;;;;9.63;3.38;;;13.80;45.50;;;;;;10218290;28;20477;-75
2021/04/10 09:26:52;;;;;;;6.32;3.13;;;14.50;46.40;;;;;;10218660;28;20043;-73
2021/04/10 09:31:49;;;;;;;7.30;2.95;;;;;;;;;;10218026;28;20043;-74
2021/04/10 09:36:46;;;;;;;7.97;3.25;;;14.50;45.30;;;;;;10218524;28;20147;-73
2021/04/10 09:41:50;;;;;;;6.43;2.92;;;14.20;45.00;;;;;;10199245;28;20056;-73
2021/04/10 09:46:54;;;;;;;6.68;3.45;;;14.70;45.00;;;;;;10217843;28;20432;-74
2021/04/10 09:51:52;;;;;;;3.72;2.88;;;13.90;44.50;;;;;;10217803;28;20056;-74
2021/04/10 09:56:45;;;;;;;8.13;3.10;;;14.50;44.60;;;;;;10199764;28;20093;-74
2021/04/10 10:01:39;;;;;;;10.30;3.65;;;14.50;44.60;;;;;;10217044;28;20048;-74
2021/04/10 10:06:39;;;;;;;8.65;3.65;;;14.80;45.50;;;;;;10215944;28;20262;-73
2021/04/10 10:11:53;;;;;;;6.47;2.85;;;14.40;44.10;;;;;;10216417;28;20051;-74
2021/04/10 10:16:47;;;;;;;8.50;3.28;;;15.50;45.40;;;;;;10216556;28;20050;-74
2021/04/10 10:21:40;;;;;;;7.82;3.08;;;14.10;43.50;;;;;;10215919;28;20046;-73
2021/04/10 10:26:40;;;;;;;7.22;3.25;;;16.70;44.80;;;;;;10198120;28;20057;-74
2021/04/10 10:31:41;;;;;;;4.80;3.10;;;17.40;45.30;;;;;;10215438;28;20086;-72
2021/04/10 10:36:40;;;;;;;10.55;3.45;;;14.30;43.30;;;;;;10215063;28;20044;-74
2021/04/10 10:41:42;;;;;;;9.40;3.17;;;16.80;44.50;;;;;;10196206;28;20063;-74
2021/04/10 10:46:35;;;;;;;9.05;3.60;;;14.20;43.70;;;;;;10215790;28;20401;-73
2021/04/10 10:51:28;;;;;;;12.15;3.72;;;15.90;43.40;;;;;;10215429;28;20554;-73
2021/04/10 10:56:29;;;;;;;8.25;3.63;;;15.90;44.00;;;;;;10215113;28;20040;-74
2021/04/10 11:01:24;;;;;;;10.75;3.40;;;15.60;43.60;;;;;;10214097;28;20044;-73
2021/04/10 11:06:19;;;;;;;10.18;3.40;;;16.30;42.90;;;;;;10214772;28;20052;-73
2021/04/10 11:11:15;;;;;;;10.27;3.33;;;17.40;43.20;;;;;;10214309;28;20130;-74
2021/04/10 11:16:09;;;;;;;9.75;3.50;;;15.40;41.50;;;;;;10214162;28;20526;-74
2021/04/10 11:21:12;;;;;;;5.90;3.45;;;;;;;;;;10213782;28;20092;-73
2021/04/10 11:26:08;;;;;;;13.18;4.10;;;17.80;42.40;;;;;;10214000;28;20048;-73
2021/04/10 11:31:05;;;;;;;8.25;3.20;;;18.60;38.70;;;;;;10213484;28;20047;-73
2021/04/10 11:35:58;;;;;;;10.57;2.83;;;19.00;36.70;;;;;;10192520;28;20032;-73
2021/04/10 11:40:52;;;;;;;7.72;2.70;;;;;;;;;;10209951;28;20082;-73
2021/04/10 11:45:47;;;;;;;5.90;3.22;;;19.70;33.70;;;;;;10211924;28;20048;-73
2021/04/10 11:50:42;;;;;;;7.45;3.00;;;19.00;35.60;;;;;;10213127;28;20486;-72
2021/04/10 11:55:36;;;;;;;8.18;3.20;;;20.10;35.20;;;;;;10213897;28;20047;-74
2021/04/10 12:00:28;;;;;;;5.85;2.70;;;18.70;35.30;;;;;;10213193;28;20449;-74
2021/04/10 12:05:26;;;;;;;6.60;3.30;;;18.40;34.80;;;;;;10213283;28;20046;-72
2021/04/10 12:10:19;;;;;;;6.20;2.40;;;20.30;36.00;;;;;;10212354;28;20032;-76
2021/04/10 12:15:24;;;;;;;9.07;3.03;;;19.90;35.70;;;;;;10221040;28;20123;-74
2021/04/10 12:20:16;;;;;;;22.98;3.75;;;19.40;36.10;;;;;;10221152;28;20495;-77
2021/04/10 12:25:10;;;;;;;17.42;4.30;;;19.40;36.30;;;;;;10220635;28;20050;-78
2021/04/10 12:30:06;;;;;;;6.10;2.50;;;18.90;38.70;;;;;;10221030;28;20047;-74
2021/04/10 12:35:00;;;;;;;11.63;3.55;;;19.10;38.20;;;;;;10219588;28;20397;-78
2021/04/10 12:39:52;;;;;;;9.45;2.53;;;18.60;38.60;;;;;;10219642;28;20052;-79
2021/04/10 12:44:45;;;;;;;5.35;2.40;;;18.50;38.10;;;;;;10219284;28;20048;-79
2021/04/10 12:49:39;;;;;;;8.55;2.22;;;;;;;;;;10218636;28;20120;-78
2021/04/10 12:54:33;;;;;;;6.53;2.85;;;19.50;39.40;;;;;;10219055;28;20052;-78
2021/04/10 12:59:28;;;;;;;5.28;2.20;;;18.70;37.20;;;;;;10218472;28;20050;-78
2021/04/10 13:04:20;;;;;;;6.90;2.10;;;19.00;38.40;;;;;;10210311;28;20069;-77
2021/04/10 13:09:13;;;;;;;7.57;2.20;;;19.40;38.00;;;;;;10218090;28;20051;-78
2021/04/10 13:14:07;;;;;;;5.07;2.72;;;19.20;36.50;;;;;;10218073;28;20043;-78
2021/04/10 13:19:00;;;;;;;8.40;2.47;;;19.20;37.30;;;;;;10217540;28;20040;-80
2021/04/10 13:23:53;;;;;;;6.85;2.20;;;19.10;36.90;;;;;;10217138;28;20133;-79
2021/04/10 13:28:46;;;;;;;7.47;2.35;;;20.00;35.20;;;;;;10199573;28;20101;-82
2021/04/10 13:33:39;;;;;;;6.93;2.17;;;18.60;36.20;;;;;;10200471;28;20096;-82
2021/04/10 13:38:32;;;;;;;4.13;2.00;;;18.90;35.60;;;;;;10224900;28;20120;-81
2021/04/10 13:43:25;;;;;;;5.65;2.50;;;19.00;36.20;;;;;;10218387;28;20044;-82
2021/04/10 13:48:18;;;;;;;8.70;2.28;;;20.10;36.30;;;;;;10217731;28;20044;-81
2021/04/10 13:53:11;;;;;;;10.23;2.15;;;19.30;35.90;;;;;;10217423;28;20045;-80
2021/04/10 13:58:04;;;;;;;6.07;1.95;;;19.00;34.90;;;;;;10182669;28;20074;-80
2021/04/10 14:02:57;;;;;;;4.93;1.98;;;20.00;34.10;;;;;;10216892;28;20039;-83
2021/04/10 14:07:50;;;;;;;4.05;1.85;;;18.60;34.40;;;;;;10217041;28;20473;-81
2021/04/10 14:12:43;;;;;;;11.15;2.10;;;20.30;33.10;;;;;;10216732;28;20043;-83
2021/04/10 14:17:36;;;;;;;4.13;2.00;;;19.60;32.40;;;;;;10216826;28;20050;-85
2021/04/10 14:22:30;;;;;;;5.22;2.15;;;19.30;32.50;;;;;;10214444;28;20040;-86
2021/04/10 14:27:24;;;;;;;7.20;2.30;;;19.90;33.60;;;;;;10216795;28;20062;-83
2021/04/10 14:32:17;;;;;;;7.35;2.10;;;18.90;34.80;;;;;;10215129;28;20712;-80
2021/04/10 14:37:11;;;;;;;6.65;2.10;;;19.40;33.90;;;;;;10214126;28;20161;-81
2021/04/10 14:42:05;;;;;;;6.18;2.03;;;19.70;33.50;;;;;;10216380;28;20367;-81
2021/04/10 14:46:59;;;;;;;3.63;1.77;;;18.60;34.40;;;;;;10197564;28;20043;-82
2021/04/10 14:51:53;;;;;;;5.22;2.35;;;19.30;34.40;;;;;;10197166;28;20087;-79
2021/04/10 14:56:46;;;;;;;5.55;1.83;;;19.70;33.30;;;;;;10215006;28;20073;-79
2021/04/10 15:01:38;;;;;;;6.65;1.90;;;19.30;33.20;;;;;;10214446;28;20040;-81
2021/04/10 15:06:32;;;;;;;3.83;1.75;;;19.80;33.50;;;;;;10196260;28;20058;-82
2021/04/10 15:11:26;;;;;;;3.67;1.88;;;19.20;33.20;;;;;;10212236;28;20063;-80
2021/04/10 15:16:21;;;;;;;5.47;1.80;;;19.00;33.00;;;;;;10196010;28;20556;-81
2021/04/10 15:21:15;;;;;;;6.80;2.35;;;19.20;33.60;;;;;;10214925;28;20055;-83
2021/04/10 15:26:09;;;;;;;10.70;2.30;;;19.20;33.70;;;;;;10213777;28;20043;-83
2021/04/10 15:31:04;;;;;;;7.97;2.08;;;19.30;33.70;;;;;;10213953;28;20103;-81
2021/04/10 15:35:57;;;;;;;10.30;2.30;;;19.30;34.10;;;;;;10213827;28;20047;-83
2021/04/10 15:40:50;;;;;;;11.13;4.65;;;19.00;32.50;;;;;;10211914;28;20910;-82
2021/04/10 15:45:43;;;;;;;10.73;2.10;;;19.50;32.80;;;;;;10217331;28;20047;-84
2021/04/10 15:50:36;;;;;;;7.55;2.00;;;18.90;32.40;;;;;;10232449;28;20039;-83
2021/04/10 15:55:29;;;;;;;7.90;2.40;;;19.00;32.60;;;;;;10227375;28;20044;-85
2021/04/10 16:00:25;;;;;;;4.20;2.00;;;19.40;32.70;;;;;;10228558;28;20048;-83
2021/04/10 16:05:19;;;;;;;6.70;2.15;;;;;;;;;;10191950;28;20044;-83
2021/04/10 16:10:12;;;;;;;4.88;1.85;;;20.00;33.30;;;;;;10227239;28;20055;-83
2021/04/10 16:15:08;;;;;;;6.78;1.95;;;18.70;32.80;;;;;;10227787;28;20409;-83
2021/04/10 16:20:01;;;;;;;3.53;2.00;;;18.20;33.40;;;;;;10227112;28;20036;-82
2021/04/10 16:25:00;;;;;;;8.60;2.22;;;18.50;33.40;;;;;;10227660;28;20080;-85
2021/04/10 16:29:53;;;;;;;8.35;2.25;;;19.20;34.00;;;;;;10226721;28;20055;-84
2021/04/10 16:34:46;;;;;;;6.25;1.90;;;18.80;33.90;;;;;;10226341;28;20036;-85
2021/04/10 16:39:39;;;;;;;4.53;2.38;;;18.40;32.80;;;;;;10227665;28;20143;-84
2021/04/10 16:44:33;;;;;;;9.30;2.38;;;18.60;33.00;;;;;;10215023;28;20126;-84
2021/04/10 16:49:26;;;;;;;6.30;2.00;;;18.60;34.20;;;;;;10232679;28;20078;-83
2021/04/10 16:54:18;;;;;;;4.03;2.20;;;19.00;34.50;;;;;;10230856;28;20164;-84
2021/04/10 16:59:11;;;;;;;6.88;1.90;;;19.70;34.00;;;;;;10229354;28;20513;-84
2021/04/10 17:04:05;;;;;;;5.43;2.20;;;18.00;34.20;;;;;;10222747;28;20395;-83
2021/04/10 17:08:58;;;;;;;11.32;2.70;;;19.80;35.30;;;;;;10220678;28;20054;-83
2021/04/10 17:13:53;;;;;;;5.03;2.40;;;;;;;;;;10220887;28;20048;-82
2021/04/10 17:18:45;;;;;;;6.70;2.22;;;18.40;33.80;;;;;;10221280;28;20047;-83
2021/04/10 17:23:40;;;;;;;6.57;2.80;;;18.60;35.10;;;;;;10202721;28;20051;-83
2021/04/10 17:28:32;;;;;;;6.60;2.20;;;18.70;34.30;;;;;;10201277;28;20047;-82
2021/04/10 17:33:25;;;;;;;5.68;2.70;;;;;;;;;;10218258;28;20509;-78
2021/04/10 17:38:18;;;;;;;8.25;2.75;;;;;;;;;;10213855;28;20582;-80
2021/04/10 17:43:15;;;;;;;6.22;2.65;;;19.30;35.80;;;;;;10198932;28;20040;-80
2021/04/10 17:48:10;;;;;;;6.90;3.10;;;18.10;34.70;;;;;;10218220;28;20127;-78
2021/04/10 17:53:03;;;;;;;11.80;2.58;;;18.20;34.70;;;;;;10218338;28;20050;-83
2021/04/10 17:57:58;;;;;;;7.20;2.95;;;18.00;35.70;;;;;;10217724;28;20126;-76
2021/04/10 18:02:52;;;;;;;10.43;2.92;;;18.30;36.00;;;;;;10220560;28;20050;-83
2021/04/10 18:07:47;;;;;;;9.05;3.13;;;18.80;35.30;;;;;;10219180;28;20051;-88
2021/04/10 18:12:41;;;;;;;13.80;3.72;;;;;;;;;;10220759;28;20071;-87
2021/04/10 18:17:34;;;;;;;11.52;3.13;;;17.70;35.10;;;;;;10206215;28;20055;-88
2021/04/10 18:22:28;;;;;;;11.07;3.20;;;;;;;;;;10227920;28;20031;-88
2021/04/10 18:27:23;;;;;;;14.73;3.83;;;17.90;35.60;;;;;;10222706;28;20048;-86
2021/04/10 18:32:16;;;;;;;10.38;3.63;;;18.50;35.90;;;;;;10221751;28;20489;-87
2021/04/10 18:37:12;;;;;;;7.10;3.53;;;;;;;;;;10221017;28;20055;-87
2021/04/10 18:42:06;;;;;;;10.63;3.65;;;;;;;;;;10220361;28;20061;-88
2021/04/10 18:46:59;;;;;;;9.98;3.83;;;18.80;37.50;;;;;;10221043;28;20039;-86
2021/04/10 18:51:53;;;;;;;9.20;3.85;;;19.40;37.20;;;;;;10217530;28;20047;-87
2021/04/10 18:56:47;;;;;;;12.43;4.18;;;17.80;37.00;;;;;;10215923;28;20071;-88
2021/04/10 19:01:41;;;;;;;10.57;4.03;;;18.10;37.70;;;;;;10216065;28;20073;-86
2021/04/10 19:06:34;;;;;;;10.02;3.45;;;17.70;38.90;;;;;;10233636;27;20047;-87
2021/04/10 19:11:27;;;;;;;9.88;4.15;;;;;;;;;;10217869;28;20053;-87
2021/04/10 19:16:21;;;;;;;7.88;3.75;;;17.80;39.60;;;;;;10196868;28;20039;-87
2021/04/10 19:21:15;;;;;;;9.30;3.85;;;;;;;;;;10216321;28;20047;-86
2021/04/10 19:26:08;;;;;;;9.50;4.60;;;17.80;40.60;;;;;;10214884;28;20035;-87
2021/04/10 19:31:05;;;;;;;10.90;4.10;;;17.40;40.30;;;;;;10212744;28;20067;-87
2021/04/10 19:36:01;;;;;;;10.18;4.53;;;17.10;40.10;;;;;;10213083;28;20058;-88
2021/04/10 19:40:57;;;;;;;8.18;3.67;;;15.60;40.00;;;;;;10213328;28;20407;-84
2021/04/10 19:45:53;;;;;;;10.18;3.97;;;17.10;40.10;;;;;;10214751;28;20131;-85
2021/04/10 19:50:46;;;;;;;11.15;3.90;;;17.50;40.90;;;;;;10189110;28;20069;-84
2021/04/10 19:55:39;;;;;;;8.02;3.53;;;;;;;;;;10152954;28;20052;-83
2021/04/10 20:00:33;;;;;;;7.88;3.22;;;16.40;39.50;;;;;;10172324;28;20059;-84
2021/04/10 20:05:26;;;;;;;6.05;3.13;;;17.80;40.20;;;;;;10172689;28;20044;-83
2021/04/10 20:10:20;;;;;;;15.90;4.13;;;18.30;41.30;;;;;;10173762;28;20119;-82
2021/04/10 20:15:13;;;;;;;9.52;4.05;;;16.70;39.80;;;;;;10189685;28;20071;-85
2021/04/10 20:20:08;;;;;;;11.65;4.53;;;18.20;40.70;;;;;;10173613;28;20051;-85
2021/04/10 20:25:04;;;;;;;11.93;4.03;;;16.30;40.60;;;;;;10172844;28;20044;-85
2021/04/10 20:29:57;;;;;;;9.60;4.90;;;;;;;;;;10173170;28;20067;-86
2021/04/10 20:34:50;;;;;;;10.43;4.80;;;17.80;41.70;;;;;;10179126;28;20048;-87
2021/04/10 20:39:43;;;;;;;11.90;4.53;;;15.80;40.00;;;;;;10196476;28;20406;-88
2021/04/10 20:44:37;;;;;;;12.00;5.00;;;;;;;;;;10220771;28;20096;-86
2021/04/10 20:49:33;;;;;;;12.27;4.97;;;15.10;40.60;;;;;;10202294;28;20512;-88
2021/04/10 20:54:26;;;;;;;10.05;4.85;;;;;;;;;;10220357;28;20054;-85
2021/04/10 20:59:21;;;;;;;12.20;4.97;;;;;;;;;;10219869;28;20085;-86
2021/04/10 21:04:14;;;;;;;11.52;4.95;;;18.80;43.20;;;;;;10221630;28;20050;-87
2021/04/10 21:09:08;;;;;;;12.68;5.10;;;;;;;;;;10202652;28;20051;-86
2021/04/10 21:14:01;;;;;;;13.48;5.50;;;16.40;41.90;;;;;;10220261;28;20040;-85
2021/04/10 21:18:54;;;;;;;14.70;5.00;;;;;;;;;;10213300;28;20488;-86
2021/04/10 21:23:48;;;;;;;11.80;5.82;;;;;;;;;;10224324;28;20401;-86
2021/04/10 21:28:40;;;;;;;13.40;6.78;;;15.30;42.30;;;;;;10220156;28;20481;-86
2021/04/10 21:33:37;;;;;;;16.67;6.65;;;17.40;42.80;;;;;;10218721;28;20115;-86
2021/04/10 21:38:33;;;;;;;14.85;7.15;;;16.00;42.10;;;;;;10215967;28;20422;-87
2021/04/10 21:43:26;;;;;;;18.92;7.15;;;;;;;;;;10218393;28;20035;-88
2021/04/10 21:48:18;;;;;;;16.98;7.10;;;17.80;43.60;;;;;;10201361;28;20117;-84
2021/04/10 21:53:11;;;;;;;14.70;7.15;;;15.40;42.60;;;;;;10186520;28;20058;-85
2021/04/10 21:58:05;;;;;;;16.50;6.93;;;17.50;43.80;;;;;;10219007;28;20142;-86
2021/04/10 22:02:58;;;;;;;13.95;6.45;;;16.40;44.20;;;;;;10217181;28;20039;-85
2021/04/10 22:07:54;;;;;;;17.58;6.20;;;14.90;43.00;;;;;;10218012;28;20116;-90
2021/04/10 22:12:47;;;;;;;12.68;6.35;;;15.00;44.20;;;;;;10217842;28;20066;-86
2021/04/10 22:17:44;;;;;;;13.88;6.20;;;15.40;44.70;;;;;;10217761;28;20048;-88
2021/04/10 22:22:41;;;;;;;15.20;6.78;;;14.50;43.60;;;;;;10194325;28;20067;-87
2021/04/10 22:27:34;;;;;;;16.83;6.32;;;15.00;44.20;;;;;;10230760;28;20161;-86
2021/04/10 22:32:27;;;;;;;16.50;6.38;;;14.70;44.80;;;;;;10217218;28;20048;-88
2021/04/10 22:37:20;;;;;;;14.95;6.45;;;15.70;45.60;;;;;;10217546;28;20433;-88
2021/04/10 22:42:13;;;;;;;16.85;6.95;;;15.40;45.00;;;;;;10222215;28;20634;-87
2021/04/10 22:47:06;;;;;;;13.50;6.03;;;14.30;45.40;;;;;;10232442;28;20040;-85
2021/04/10 22:51:59;;;;;;;18.02;7.68;;;15.70;45.40;;;;;;10220475;28;20261;-85
2021/04/10 22:56:53;;;;;;;15.48;7.20;;;14.60;45.10;;;;;;10215858;28;20494;-85
2021/04/10 23:01:46;;;;;;;18.00;7.25;;;15.50;45.50;;;;;;10197796;28;20044;-85
2021/04/10 23:06:38;;;;;;;15.90;7.10;;;15.80;45.90;;;;;;10215562;28;20394;-84
2021/04/10 23:11:34;;;;;;;14.68;6.60;;;;;;;;;;10215353;28;20456;-83
2021/04/10 23:16:27;;;;;;;13.73;7.40;;;14.40;45.70;;;;;;10215291;28;20523;-84
2021/04/10 23:21:20;;;;;;;13.93;7.30;;;15.10;47.20;;;;;;10163693;28;20048;-83
2021/04/10 23:26:13;;;;;;;16.75;7.22;;;14.30;46.70;;;;;;10173628;28;20047;-84
2021/04/10 23:31:06;;;;;;;20.85;7.78;;;;;;;;;;10174571;28;20044;-85
2021/04/10 23:36:02;;;;;;;18.35;8.52;;;14.20;46.40;;;;;;10210266;28;20050;-83
2021/04/10 23:40:55;;;;;;;16.60;7.72;;;15.50;47.40;;;;;;10212711;28;20052;-83
2021/04/10 23:45:48;;;;;;;20.23;8.25;;;14.80;47.30;;;;;;10214129;28;20043;-87
2021/04/10 23:50:40;;;;;;;19.98;7.90;;;14.60;47.30;;;;;;10213455;28;20048;-85
2021/04/10 23:55:35;;;;;;;20.33;8.68;;;;;;;;;;10213758;28;20061;-84
